sensor_id;sensor_type;location;lat;lon;timestamp;pressure;altitude;pressure_sealevel;temperature;humidity
38466;BME280;24244;51.950;5.902;2023-04-02T00:04:11;101031.84;;;7.83;87.14
38466;BME280;24244;51.950;5.902;2023-04-02T00:06:40;101046.72;;;7.84;86.94
38466;BME280;24244;51.950;5.902;2023-04-02T00:09:23;101047.88;;;7.82;86.94
38466;BME280;24244;51.950;5.902;2023-04-02T00:11:51;101050.34;;;7.75;86.84
38466;BME280;24244;51.950;5.902;2023-04-02T00:14:24;101054.78;;;7.75;86.76
38466;BME280;24244;51.950;5.902;2023-04-02T00:16:53;101063.06;;;7.72;86.85
38466;BME280;24244;51.950;5.902;2023-04-02T00:19:29;101066.69;;;7.71;86.66
38466;BME280;24244;51.950;5.902;2023-04-02T00:21:58;101066.34;;;7.66;86.64
38466;BME280;24244;51.950;5.902;2023-04-02T00:24:26;101066.50;;;7.64;86.50
38466;BME280;24244;51.950;5.902;2023-04-02T00:26:53;101081.06;;;7.68;86.93
38466;BME280;24244;51.950;5.902;2023-04-02T00:29:20;101077.28;;;7.71;86.50
38466;BME280;24244;51.950;5.902;2023-04-02T00:31:49;101082.28;;;7.74;86.58
38466;BME280;24244;51.950;5.902;2023-04-02T00:34:19;101092.84;;;7.74;86.27
38466;BME280;24244;51.950;5.902;2023-04-02T00:36:49;101094.28;;;7.68;86.09
38466;BME280;24244;51.950;5.902;2023-04-02T00:39:19;101101.75;;;7.65;85.92
38466;BME280;24244;51.950;5.902;2023-04-02T00:41:47;101104.53;;;7.63;86.04
38466;BME280;24244;51.950;5.902;2023-04-02T00:44:16;101107.53;;;7.68;86.10
38466;BME280;24244;51.950;5.902;2023-04-02T00:46:50;101113.66;;;7.69;85.92
38466;BME280;24244;51.950;5.902;2023-04-02T00:49:21;101108.88;;;7.72;86.14
38466;BME280;24244;51.950;5.902;2023-04-02T00:51:52;101119.31;;;7.74;86.14
38466;BME280;24244;51.950;5.902;2023-04-02T00:54:27;101114.03;;;7.74;85.98
38466;BME280;24244;51.950;5.902;2023-04-02T00:56:56;101120.75;;;7.68;85.78
38466;BME280;24244;51.950;5.902;2023-04-02T00:59:27;101118.94;;;7.69;86.02
38466;BME280;24244;51.950;5.902;2023-04-02T01:01:59;101125.41;;;7.66;86.00
38466;BME280;24244;51.950;5.902;2023-04-02T01:04:32;101135.78;;;7.68;86.17
38466;BME280;24244;51.950;5.902;2023-04-02T01:07:04;101140.94;;;7.69;85.82
38466;BME280;24244;51.950;5.902;2023-04-02T01:09:46;101148.00;;;7.61;85.25
38466;BME280;24244;51.950;5.902;2023-04-02T01:12:33;101157.09;;;7.58;85.59
38466;BME280;24244;51.950;5.902;2023-04-02T01:15:10;101162.38;;;7.58;85.75
38466;BME280;24244;51.950;5.902;2023-04-02T01:17:42;101162.22;;;7.60;85.83
38466;BME280;24244;51.950;5.902;2023-04-02T01:20:29;101169.00;;;7.62;85.63
38466;BME280;24244;51.950;5.902;2023-04-02T01:23:07;101168.31;;;7.60;85.48
38466;BME280;24244;51.950;5.902;2023-04-02T01:25:41;101160.25;;;7.62;85.55
38466;BME280;24244;51.950;5.902;2023-04-02T01:28:14;101175.47;;;7.60;85.50
38466;BME280;24244;51.950;5.902;2023-04-02T01:30:50;101185.22;;;7.59;85.71
38466;BME280;24244;51.950;5.902;2023-04-02T01:33:21;101176.06;;;7.54;85.26
38466;BME280;24244;51.950;5.902;2023-04-02T01:36:00;101207.81;;;7.54;85.42
38466;BME280;24244;51.950;5.902;2023-04-02T01:38:35;101199.38;;;7.50;85.26
38466;BME280;24244;51.950;5.902;2023-04-02T01:41:09;101204.81;;;7.48;85.63
38466;BME280;24244;51.950;5.902;2023-04-02T01:43:44;101213.72;;;7.47;85.48
38466;BME280;24244;51.950;5.902;2023-04-02T01:46:28;101209.88;;;7.42;85.08
38466;BME280;24244;51.950;5.902;2023-04-02T01:48:56;101214.19;;;7.43;85.50
38466;BME280;24244;51.950;5.902;2023-04-02T01:51:28;101220.47;;;7.42;85.43
38466;BME280;24244;51.950;5.902;2023-04-02T01:53:57;101226.72;;;7.41;85.00
38466;BME280;24244;51.950;5.902;2023-04-02T01:56:27;101220.09;;;7.37;85.06
38466;BME280;24244;51.950;5.902;2023-04-02T01:58:56;101232.78;;;7.33;85.01
38466;BME280;24244;51.950;5.902;2023-04-02T02:01:29;101237.41;;;7.31;84.99
38466;BME280;24244;51.950;5.902;2023-04-02T02:04:04;101243.50;;;7.32;85.04
38466;BME280;24244;51.950;5.902;2023-04-02T02:06:32;101249.59;;;7.24;84.64
38466;BME280;24244;51.950;5.902;2023-04-02T02:09:02;101255.69;;;7.25;85.13
38466;BME280;24244;51.950;5.902;2023-04-02T02:11:31;101257.53;;;7.24;84.88
38466;BME280;24244;51.950;5.902;2023-04-02T02:14:00;101263.47;;;7.26;84.94
38466;BME280;24244;51.950;5.902;2023-04-02T02:16:30;101265.00;;;7.29;84.65
38466;BME280;24244;51.950;5.902;2023-04-02T02:19:00;101270.28;;;7.29;84.57
38466;BME280;24244;51.950;5.902;2023-04-02T02:21:37;101278.50;;;7.26;84.82
38466;BME280;24244;51.950;5.902;2023-04-02T02:24:06;101289.75;;;7.28;84.92
38466;BME280;24244;51.950;5.902;2023-04-02T02:26:40;101283.50;;;7.29;84.85
38466;BME280;24244;51.950;5.902;2023-04-02T02:29:10;101289.91;;;7.26;84.74
38466;BME280;24244;51.950;5.902;2023-04-02T02:31:42;101295.88;;;7.28;84.54
38466;BME280;24244;51.950;5.902;2023-04-02T02:34:15;101302.69;;;7.31;84.92
38466;BME280;24244;51.950;5.902;2023-04-02T02:36:49;101303.66;;;7.30;84.35
38466;BME280;24244;51.950;5.902;2023-04-02T02:39:22;101309.56;;;7.24;84.61
38466;BME280;24244;51.950;5.902;2023-04-02T02:41:56;101324.75;;;7.22;84.48
38466;BME280;24244;51.950;5.902;2023-04-02T02:44:26;101314.09;;;7.14;84.34
38466;BME280;24244;51.950;5.902;2023-04-02T02:47:00;101321.31;;;7.12;84.95
38466;BME280;24244;51.950;5.902;2023-04-02T02:49:29;101318.84;;;7.10;84.47
38466;BME280;24244;51.950;5.902;2023-04-02T02:52:00;101329.03;;;7.05;84.43
38466;BME280;24244;51.950;5.902;2023-04-02T02:54:30;101333.78;;;7.01;84.55
38466;BME280;24244;51.950;5.902;2023-04-02T02:57:04;101342.38;;;7.03;85.02
38466;BME280;24244;51.950;5.902;2023-04-02T02:59:35;101347.53;;;7.05;84.66
38466;BME280;24244;51.950;5.902;2023-04-02T03:02:05;101356.44;;;7.04;84.65
38466;BME280;24244;51.950;5.902;2023-04-02T03:04:37;101351.75;;;6.98;84.19
38466;BME280;24244;51.950;5.902;2023-04-02T03:07:04;101360.81;;;6.95;84.33
38466;BME280;24244;51.950;5.902;2023-04-02T03:09:39;101354.69;;;6.95;84.52
38466;BME280;24244;51.950;5.902;2023-04-02T03:12:24;101363.75;;;6.92;84.38
38466;BME280;24244;51.950;5.902;2023-04-02T03:14:58;101376.81;;;6.94;84.22
38466;BME280;24244;51.950;5.902;2023-04-02T03:17:39;101381.72;;;6.89;84.21
38466;BME280;24244;51.950;5.902;2023-04-02T03:20:14;101386.31;;;6.87;84.33
38466;BME280;24244;51.950;5.902;2023-04-02T03:22:46;101399.38;;;6.88;84.44
38466;BME280;24244;51.950;5.902;2023-04-02T03:25:24;101397.16;;;6.84;84.08
38466;BME280;24244;51.950;5.902;2023-04-02T03:27:59;101403.97;;;6.86;84.52
38466;BME280;24244;51.950;5.902;2023-04-02T03:30:32;101406.63;;;6.86;84.25
38466;BME280;24244;51.950;5.902;2023-04-02T03:33:04;101407.72;;;6.84;84.21
38466;BME280;24244;51.950;5.902;2023-04-02T03:35:36;101418.44;;;6.82;84.33
38466;BME280;24244;51.950;5.902;2023-04-02T03:38:12;101420.09;;;6.83;84.44
38466;BME280;24244;51.950;5.902;2023-04-02T03:40:47;101428.22;;;6.82;84.28
38466;BME280;24244;51.950;5.902;2023-04-02T03:43:22;101425.84;;;6.79;84.10
38466;BME280;24244;51.950;5.902;2023-04-02T03:45:52;101431.25;;;6.77;84.09
38466;BME280;24244;51.950;5.902;2023-04-02T03:48:27;101441.69;;;6.79;84.04
38466;BME280;24244;51.950;5.902;2023-04-02T03:51:02;101447.13;;;6.77;84.20
38466;BME280;24244;51.950;5.902;2023-04-02T03:53:31;101461.03;;;6.79;84.04
38466;BME280;24244;51.950;5.902;2023-04-02T03:56:01;101464.63;;;6.78;83.91
38466;BME280;24244;51.950;5.902;2023-04-02T03:58:33;101469.09;;;6.78;83.96
38466;BME280;24244;51.950;5.902;2023-04-02T04:01:08;101468.38;;;6.76;84.16
38466;BME280;24244;51.950;5.902;2023-04-02T04:03:44;101486.06;;;6.75;83.67
38466;BME280;24244;51.950;5.902;2023-04-02T04:06:13;101490.09;;;6.69;83.80
38466;BME280;24244;51.950;5.902;2023-04-02T04:08:45;101499.31;;;6.65;83.74
38466;BME280;24244;51.950;5.902;2023-04-02T04:11:18;101498.75;;;6.62;83.16
38466;BME280;24244;51.950;5.902;2023-04-02T04:13:51;101510.28;;;6.61;83.12
38466;BME280;24244;51.950;5.902;2023-04-02T04:16:21;101511.53;;;6.57;83.49
38466;BME280;24244;51.950;5.902;2023-04-02T04:18:58;101514.31;;;6.55;83.42
38466;BME280;24244;51.950;5.902;2023-04-02T04:21:29;101519.59;;;6.55;83.25
38466;BME280;24244;51.950;5.902;2023-04-02T04:24:00;101525.84;;;6.54;83.60
38466;BME280;24244;51.950;5.902;2023-04-02T04:26:37;101523.22;;;6.54;83.57
38466;BME280;24244;51.950;5.902;2023-04-02T04:29:14;101533.50;;;6.57;83.34
38466;BME280;24244;51.950;5.902;2023-04-02T04:31:45;101539.75;;;6.56;83.38
38466;BME280;24244;51.950;5.902;2023-04-02T04:34:19;101543.38;;;6.55;83.06
38466;BME280;24244;51.950;5.902;2023-04-02T04:36:51;101544.66;;;6.51;83.30
38466;BME280;24244;51.950;5.902;2023-04-02T04:39:26;101554.63;;;6.48;83.18
38466;BME280;24244;51.950;5.902;2023-04-02T04:41:58;101562.28;;;6.41;82.03
38466;BME280;24244;51.950;5.902;2023-04-02T04:44:39;101578.44;;;6.38;82.74
38466;BME280;24244;51.950;5.902;2023-04-02T04:47:09;101574.97;;;6.38;82.61
38466;BME280;24244;51.950;5.902;2023-04-02T04:49:42;101584.69;;;6.37;83.01
38466;BME280;24244;51.950;5.902;2023-04-02T04:52:15;101589.25;;;6.35;82.51
38466;BME280;24244;51.950;5.902;2023-04-02T04:54:48;101603.00;;;6.29;82.07
38466;BME280;24244;51.950;5.902;2023-04-02T04:57:24;101599.25;;;6.22;82.33
38466;BME280;24244;51.950;5.902;2023-04-02T04:59:58;101609.81;;;6.22;82.44
38466;BME280;24244;51.950;5.902;2023-04-02T05:02:32;101629.81;;;6.15;81.17
38466;BME280;24244;51.950;5.902;2023-04-02T05:05:18;101630.66;;;6.15;81.76
38466;BME280;24244;51.950;5.902;2023-04-02T05:07:52;101636.72;;;6.06;80.58
38466;BME280;24244;51.950;5.902;2023-04-02T05:10:29;101643.66;;;5.98;79.78
38466;BME280;24244;51.950;5.902;2023-04-02T05:13:04;101643.81;;;5.96;80.79
38466;BME280;24244;51.950;5.902;2023-04-02T05:15:35;101659.63;;;5.96;80.88
38466;BME280;24244;51.950;5.902;2023-04-02T05:18:10;101665.75;;;5.97;81.25
38466;BME280;24244;51.950;5.902;2023-04-02T05:20:43;101665.28;;;5.92;80.60
38466;BME280;24244;51.950;5.902;2023-04-02T05:23:16;101675.53;;;5.85;79.81
38466;BME280;24244;51.950;5.902;2023-04-02T05:25:51;101683.44;;;5.85;80.59
38466;BME280;24244;51.950;5.902;2023-04-02T05:28:24;101691.00;;;5.89;80.58
38466;BME280;24244;51.950;5.902;2023-04-02T05:30:54;101696.41;;;5.88;80.40
38466;BME280;24244;51.950;5.902;2023-04-02T05:33:24;101697.03;;;5.80;80.08
38466;BME280;24244;51.950;5.902;2023-04-02T05:35:58;101708.69;;;5.78;80.04
38466;BME280;24244;51.950;5.902;2023-04-02T05:38:28;101709.78;;;5.75;80.23
38466;BME280;24244;51.950;5.902;2023-04-02T05:41:01;101708.38;;;5.71;79.81
38466;BME280;24244;51.950;5.902;2023-04-02T05:43:31;101716.56;;;5.68;80.44
38466;BME280;24244;51.950;5.902;2023-04-02T05:46:03;101722.09;;;5.65;79.91
38466;BME280;24244;51.950;5.902;2023-04-02T05:48:36;101724.72;;;5.65;80.14
38466;BME280;24244;51.950;5.902;2023-04-02T05:51:08;101734.97;;;5.59;79.52
38466;BME280;24244;51.950;5.902;2023-04-02T05:53:39;101731.03;;;5.53;78.85
38466;BME280;24244;51.950;5.902;2023-04-02T05:56:15;101743.38;;;5.53;79.78
38466;BME280;24244;51.950;5.902;2023-04-02T05:58:47;101751.53;;;5.49;79.40
38466;BME280;24244;51.950;5.902;2023-04-02T06:01:24;101752.50;;;5.48;79.94
38466;BME280;24244;51.950;5.902;2023-04-02T06:03:59;101754.78;;;5.53;79.55
38466;BME280;24244;51.950;5.902;2023-04-02T06:06:42;101765.56;;;5.50;79.26
38466;BME280;24244;51.950;5.902;2023-04-02T06:09:14;101767.97;;;5.53;79.60
38466;BME280;24244;51.950;5.902;2023-04-02T06:11:45;101770.59;;;5.53;79.24
38466;BME280;24244;51.950;5.902;2023-04-02T06:14:14;101773.34;;;5.51;79.57
38466;BME280;24244;51.950;5.902;2023-04-02T06:16:43;101774.44;;;5.49;79.01
38466;BME280;24244;51.950;5.902;2023-04-02T06:19:17;101788.41;;;5.40;78.38
38466;BME280;24244;51.950;5.902;2023-04-02T06:21:51;101794.88;;;5.36;78.90
38466;BME280;24244;51.950;5.902;2023-04-02T06:24:26;101805.69;;;5.33;78.19
38466;BME280;24244;51.950;5.902;2023-04-02T06:27:01;101809.03;;;5.35;78.66
38466;BME280;24244;51.950;5.902;2023-04-02T06:29:33;101808.34;;;5.33;78.21
38466;BME280;24244;51.950;5.902;2023-04-02T06:32:06;101825.94;;;5.32;78.83
38466;BME280;24244;51.950;5.902;2023-04-02T06:34:36;101833.88;;;5.32;78.58
38466;BME280;24244;51.950;5.902;2023-04-02T06:37:13;101829.78;;;5.28;78.07
38466;BME280;24244;51.950;5.902;2023-04-02T06:39:43;101837.13;;;5.25;78.36
38466;BME280;24244;51.950;5.902;2023-04-02T06:42:16;101844.44;;;5.21;78.08
38466;BME280;24244;51.950;5.902;2023-04-02T06:44:45;101851.63;;;5.19;78.15
38466;BME280;24244;51.950;5.902;2023-04-02T06:47:27;101865.50;;;5.21;78.43
38466;BME280;24244;51.950;5.902;2023-04-02T06:50:00;101864.94;;;5.18;78.22
38466;BME280;24244;51.950;5.902;2023-04-02T06:52:34;101878.56;;;5.23;78.39
38466;BME280;24244;51.950;5.902;2023-04-02T06:55:06;101886.03;;;5.18;76.86
38466;BME280;24244;51.950;5.902;2023-04-02T06:57:43;101886.38;;;5.13;77.71
38466;BME280;24244;51.950;5.902;2023-04-02T07:00:19;101890.13;;;5.10;77.98
38466;BME280;24244;51.950;5.902;2023-04-02T07:02:51;101893.69;;;5.09;78.01
38466;BME280;24244;51.950;5.902;2023-04-02T07:05:24;101907.00;;;5.08;78.04
38466;BME280;24244;51.950;5.902;2023-04-02T07:08:10;101908.06;;;5.05;77.83
38466;BME280;24244;51.950;5.902;2023-04-02T07:10:37;101912.50;;;5.05;77.82
38466;BME280;24244;51.950;5.902;2023-04-02T07:13:04;101920.53;;;5.03;77.91
38466;BME280;24244;51.950;5.902;2023-04-02T07:15:33;101917.66;;;5.06;78.12
38466;BME280;24244;51.950;5.902;2023-04-02T07:18:02;101925.66;;;5.05;76.86
38466;BME280;24244;51.950;5.902;2023-04-02T07:20:32;101939.47;;;5.08;77.60
38466;BME280;24244;51.950;5.902;2023-04-02T07:23:03;101939.34;;;5.10;77.17
38466;BME280;24244;51.950;5.902;2023-04-02T07:25:32;101944.97;;;5.05;76.63
38466;BME280;24244;51.950;5.902;2023-04-02T07:28:00;101951.06;;;5.06;77.24
38466;BME280;24244;51.950;5.902;2023-04-02T07:30:27;101946.41;;;5.09;77.44
38466;BME280;24244;51.950;5.902;2023-04-02T07:32:54;101953.09;;;5.13;77.79
38466;BME280;24244;51.950;5.902;2023-04-02T07:35:21;101960.28;;;5.11;77.09
38466;BME280;24244;51.950;5.902;2023-04-02T07:37:48;101963.63;;;5.13;77.73
38466;BME280;24244;51.950;5.902;2023-04-02T07:40:20;101962.47;;;5.18;77.39
38466;BME280;24244;51.950;5.902;2023-04-02T07:42:51;101960.41;;;5.21;77.29
38466;BME280;24244;51.950;5.902;2023-04-02T07:45:18;101974.31;;;5.23;77.31
38466;BME280;24244;51.950;5.902;2023-04-02T07:47:46;101973.56;;;5.21;76.93
38466;BME280;24244;51.950;5.902;2023-04-02T07:50:17;101980.75;;;5.19;76.78
38466;BME280;24244;51.950;5.902;2023-04-02T07:52:44;101975.63;;;5.18;76.47
38466;BME280;24244;51.950;5.902;2023-04-02T07:55:14;101983.03;;;5.12;75.82
38466;BME280;24244;51.950;5.902;2023-04-02T07:57:48;101988.56;;;5.09;76.43
38466;BME280;24244;51.950;5.902;2023-04-02T08:00:17;101990.94;;;5.12;76.86
38466;BME280;24244;51.950;5.902;2023-04-02T08:02:44;101995.88;;;5.17;76.94
38466;BME280;24244;51.950;5.902;2023-04-02T08:05:12;102003.66;;;5.19;76.79
38466;BME280;24244;51.950;5.902;2023-04-02T08:07:40;102002.56;;;5.21;76.78
38466;BME280;24244;51.950;5.902;2023-04-02T08:10:10;102004.97;;;5.24;77.08
38466;BME280;24244;51.950;5.902;2023-04-02T08:12:38;102005.81;;;5.25;77.12
38466;BME280;24244;51.950;5.902;2023-04-02T08:15:05;102009.88;;;5.29;77.14
38466;BME280;24244;51.950;5.902;2023-04-02T08:17:34;102018.41;;;5.32;77.01
38466;BME280;24244;51.950;5.902;2023-04-02T08:20:01;102021.88;;;5.33;77.26
38466;BME280;24244;51.950;5.902;2023-04-02T08:22:29;102032.28;;;5.34;76.51
38466;BME280;24244;51.950;5.902;2023-04-02T08:24:57;102030.97;;;5.29;76.46
38466;BME280;24244;51.950;5.902;2023-04-02T08:27:24;102040.94;;;5.25;76.23
38466;BME280;24244;51.950;5.902;2023-04-02T08:29:51;102048.09;;;5.23;76.22
38466;BME280;24244;51.950;5.902;2023-04-02T08:32:18;102058.28;;;5.28;76.47
38466;BME280;24244;51.950;5.902;2023-04-02T08:34:46;102066.09;;;5.18;75.42
38466;BME280;24244;51.950;5.902;2023-04-02T08:37:14;102068.34;;;5.23;76.41
38466;BME280;24244;51.950;5.902;2023-04-02T08:39:41;102070.63;;;5.27;75.87
38466;BME280;24244;51.950;5.902;2023-04-02T08:42:18;102072.06;;;5.31;76.20
38466;BME280;24244;51.950;5.902;2023-04-02T08:44:57;102071.13;;;5.32;75.93
38466;BME280;24244;51.950;5.902;2023-04-02T08:47:50;102069.19;;;5.34;76.11
38466;BME280;24244;51.950;5.902;2023-04-02T08:50:27;102080.22;;;5.39;75.68
38466;BME280;24244;51.950;5.902;2023-04-02T08:52:56;102085.63;;;5.38;75.28
38466;BME280;24244;51.950;5.902;2023-04-02T08:55:32;102096.63;;;5.43;75.89
38466;BME280;24244;51.950;5.902;2023-04-02T08:58:08;102096.53;;;5.44;75.69
38466;BME280;24244;51.950;5.902;2023-04-02T09:00:43;102109.09;;;5.52;75.79
38466;BME280;24244;51.950;5.902;2023-04-02T09:03:16;102118.94;;;5.61;75.91
38466;BME280;24244;51.950;5.902;2023-04-02T09:05:46;102120.84;;;5.59;74.80
38466;BME280;24244;51.950;5.902;2023-04-02T09:08:16;102129.84;;;5.68;75.51
38466;BME280;24244;51.950;5.902;2023-04-02T09:10:50;102120.47;;;5.75;75.49
38466;BME280;24244;51.950;5.902;2023-04-02T09:13:24;102134.03;;;5.81;75.44
38466;BME280;24244;51.950;5.902;2023-04-02T09:15:56;102130.16;;;5.85;75.47
38466;BME280;24244;51.950;5.902;2023-04-02T09:18:29;102134.03;;;5.93;75.47
38466;BME280;24244;51.950;5.902;2023-04-02T09:21:03;102131.38;;;5.93;74.83
38466;BME280;24244;51.950;5.902;2023-04-02T09:23:42;102143.13;;;6.00;75.12
38466;BME280;24244;51.950;5.902;2023-04-02T09:26:18;102141.81;;;6.05;75.23
38466;BME280;24244;51.950;5.902;2023-04-02T09:28:48;102143.81;;;6.13;75.12
38466;BME280;24244;51.950;5.902;2023-04-02T09:31:18;102151.50;;;6.16;75.14
38466;BME280;24244;51.950;5.902;2023-04-02T09:33:48;102150.41;;;6.18;74.81
38466;BME280;24244;51.950;5.902;2023-04-02T09:36:31;102150.91;;;6.23;75.03
38466;BME280;24244;51.950;5.902;2023-04-02T09:39:01;102152.91;;;6.31;75.00
38466;BME280;24244;51.950;5.902;2023-04-02T09:41:33;102150.97;;;6.33;74.84
38466;BME280;24244;51.950;5.902;2023-04-02T09:44:17;102165.13;;;6.43;74.82
38466;BME280;24244;51.950;5.902;2023-04-02T09:46:53;102163.66;;;6.50;74.79
38466;BME280;24244;51.950;5.902;2023-04-02T09:49:25;102183.44;;;6.56;74.80
38466;BME280;24244;51.950;5.902;2023-04-02T09:52:18;102180.56;;;6.59;74.69
38466;BME280;24244;51.950;5.902;2023-04-02T09:54:47;102183.41;;;6.67;74.84
38466;BME280;24244;51.950;5.902;2023-04-02T09:57:30;102190.22;;;6.69;74.11
38466;BME280;24244;51.950;5.902;2023-04-02T10:00:14;102196.00;;;6.75;74.47
38466;BME280;24244;51.950;5.902;2023-04-02T10:03:04;102201.75;;;6.80;74.46
38466;BME280;24244;51.950;5.902;2023-04-02T10:05:32;102212.75;;;6.85;74.68
38466;BME280;24244;51.950;5.902;2023-04-02T10:08:17;102216.56;;;6.92;74.58
38466;BME280;24244;51.950;5.902;2023-04-02T10:13:26;102231.53;;;6.82;73.59
38466;BME280;24244;51.950;5.902;2023-04-02T10:15:57;102219.97;;;6.83;73.90
38466;BME280;24244;51.950;5.902;2023-04-02T10:18:35;102234.88;;;6.84;73.03
38466;BME280;24244;51.950;5.902;2023-04-02T10:21:05;102237.63;;;6.82;72.95
38466;BME280;24244;51.950;5.902;2023-04-02T10:23:35;102236.44;;;6.86;73.50
38466;BME280;24244;51.950;5.902;2023-04-02T10:26:22;102245.69;;;6.81;72.91
38466;BME280;24244;51.950;5.902;2023-04-02T10:29:26;102250.66;;;6.74;72.53
38466;BME280;24244;51.950;5.902;2023-04-02T10:32:05;102258.94;;;6.69;73.04
38466;BME280;24244;51.950;5.902;2023-04-02T10:34:41;102261.97;;;6.65;73.53
38466;BME280;24244;51.950;5.902;2023-04-02T10:37:23;102259.19;;;6.66;73.19
38466;BME280;24244;51.950;5.902;2023-04-02T10:40:02;102255.44;;;6.69;73.23
38466;BME280;24244;51.950;5.902;2023-04-02T10:42:48;102260.94;;;6.77;73.32
38466;BME280;24244;51.950;5.902;2023-04-02T10:45:34;102267.88;;;6.89;73.34
38466;BME280;24244;51.950;5.902;2023-04-02T10:48:08;102270.63;;;6.99;73.26
38466;BME280;24244;51.950;5.902;2023-04-02T10:50:44;102267.22;;;7.08;72.99
38466;BME280;24244;51.950;5.902;2023-04-02T10:53:22;102272.44;;;7.19;72.74
38466;BME280;24244;51.950;5.902;2023-04-02T10:55:57;102269.78;;;7.30;72.51
38466;BME280;24244;51.950;5.902;2023-04-02T10:58:30;102262.84;;;7.39;72.38
38466;BME280;24244;51.950;5.902;2023-04-02T11:01:02;102269.66;;;7.53;72.30
38466;BME280;24244;51.950;5.902;2023-04-02T11:03:35;102275.72;;;7.64;71.96
38466;BME280;24244;51.950;5.902;2023-04-02T11:06:12;102273.38;;;7.71;71.84
38466;BME280;24244;51.950;5.902;2023-04-02T11:08:44;102276.88;;;7.71;71.19
38466;BME280;24244;51.950;5.902;2023-04-02T11:11:16;102276.22;;;7.79;71.36
38466;BME280;24244;51.950;5.902;2023-04-02T11:13:52;102277.38;;;7.86;71.26
38466;BME280;24244;51.950;5.902;2023-04-02T11:16:21;102284.91;;;7.91;71.00
38466;BME280;24244;51.950;5.902;2023-04-02T11:19:07;102286.19;;;7.96;71.20
38466;BME280;24244;51.950;5.902;2023-04-02T11:21:38;102292.91;;;8.00;71.02
38466;BME280;24244;51.950;5.902;2023-04-02T11:24:41;102284.31;;;8.08;71.30
38466;BME280;24244;51.950;5.902;2023-04-02T11:27:19;102290.88;;;8.13;71.13
38466;BME280;24244;51.950;5.902;2023-04-02T11:29:50;102285.31;;;8.16;70.79
38466;BME280;24244;51.950;5.902;2023-04-02T11:32:39;102282.97;;;8.23;70.82
38466;BME280;24244;51.950;5.902;2023-04-02T11:37:52;102292.31;;;8.27;70.29
38466;BME280;24244;51.950;5.902;2023-04-02T11:40:40;102302.53;;;8.32;70.50
38466;BME280;24244;51.950;5.902;2023-04-02T11:49:39;102306.38;;;8.48;69.46
38466;BME280;24244;51.950;5.902;2023-04-02T11:52:25;102304.03;;;8.55;69.46
38466;BME280;24244;51.950;5.902;2023-04-02T11:54:56;102307.81;;;8.62;69.30
38466;BME280;24244;51.950;5.902;2023-04-02T11:57:42;102318.56;;;8.70;69.72
38466;BME280;24244;51.950;5.902;2023-04-02T12:00:25;102316.34;;;8.75;68.63
38466;BME280;24244;51.950;5.902;2023-04-02T12:03:11;102322.22;;;8.79;68.52
38466;BME280;24244;51.950;5.902;2023-04-02T12:05:49;102321.09;;;8.81;67.09
38466;BME280;24244;51.950;5.902;2023-04-02T12:08:37;102326.84;;;8.86;67.28
38466;BME280;24244;51.950;5.902;2023-04-02T12:11:30;102334.13;;;8.94;68.11
38466;BME280;24244;51.950;5.902;2023-04-02T12:13:59;102335.50;;;8.98;67.80
38466;BME280;24244;51.950;5.902;2023-04-02T12:16:26;102336.22;;;9.00;67.91
38466;BME280;24244;51.950;5.902;2023-04-02T12:18:58;102339.59;;;9.02;67.45
38466;BME280;24244;51.950;5.902;2023-04-02T12:21:28;102338.44;;;9.04;67.31
38466;BME280;24244;51.950;5.902;2023-04-02T12:23:57;102336.50;;;9.07;67.22
38466;BME280;24244;51.950;5.902;2023-04-02T12:26:30;102351.03;;;9.12;67.20
38466;BME280;24244;51.950;5.902;2023-04-02T12:29:14;102350.59;;;9.17;67.28
38466;BME280;24244;51.950;5.902;2023-04-02T12:31:42;102354.53;;;9.22;66.83
38466;BME280;24244;51.950;5.902;2023-04-02T12:34:13;102347.84;;;9.28;66.98
38466;BME280;24244;51.950;5.902;2023-04-02T12:36:55;102355.38;;;9.32;66.41
38466;BME280;24244;51.950;5.902;2023-04-02T12:39:22;102356.34;;;9.41;66.77
38466;BME280;24244;51.950;5.902;2023-04-02T12:41:53;102375.50;;;9.45;66.46
38466;BME280;24244;51.950;5.902;2023-04-02T12:44:22;102375.09;;;9.49;66.38
38466;BME280;24244;51.950;5.902;2023-04-02T12:46:50;102375.63;;;9.53;66.46
38466;BME280;24244;51.950;5.902;2023-04-02T12:49:32;102379.69;;;9.57;66.40
38466;BME280;24244;51.950;5.902;2023-04-02T12:52:03;102375.09;;;9.59;66.69
38466;BME280;24244;51.950;5.902;2023-04-02T12:54:42;102373.97;;;9.61;66.38
38466;BME280;24244;51.950;5.902;2023-04-02T12:57:38;102368.91;;;9.68;66.02
38466;BME280;24244;51.950;5.902;2023-04-02T13:03:31;102371.56;;;9.77;65.99
38466;BME280;24244;51.950;5.902;2023-04-02T13:05:58;102376.75;;;9.79;65.11
38466;BME280;24244;51.950;5.902;2023-04-02T13:08:28;102383.44;;;9.83;65.56
38466;BME280;24244;51.950;5.902;2023-04-02T13:11:01;102383.31;;;9.85;64.92
38466;BME280;24244;51.950;5.902;2023-04-02T13:13:33;102382.19;;;9.87;64.94
38466;BME280;24244;51.950;5.902;2023-04-02T13:16:18;102379.09;;;9.92;64.79
38466;BME280;24244;51.950;5.902;2023-04-02T13:18:49;102374.34;;;9.95;65.18
38466;BME280;24244;51.950;5.902;2023-04-02T13:21:26;102367.63;;;10.01;64.73
38466;BME280;24244;51.950;5.902;2023-04-02T13:23:56;102366.22;;;10.06;64.83
38466;BME280;24244;51.950;5.902;2023-04-02T13:26:24;102378.53;;;10.07;64.52
38466;BME280;24244;51.950;5.902;2023-04-02T13:28:58;102379.19;;;10.09;64.95
38466;BME280;24244;51.950;5.902;2023-04-02T13:31:26;102371.66;;;10.14;65.06
38466;BME280;24244;51.950;5.902;2023-04-02T13:33:53;102373.91;;;10.19;64.61
38466;BME280;24244;51.950;5.902;2023-04-02T13:36:20;102376.13;;;10.24;64.51
38466;BME280;24244;51.950;5.902;2023-04-02T13:38:47;102376.53;;;10.29;64.79
38466;BME280;24244;51.950;5.902;2023-04-02T13:41:19;102378.06;;;10.31;64.84
38466;BME280;24244;51.950;5.902;2023-04-02T13:43:48;102374.41;;;10.32;64.21
38466;BME280;24244;51.950;5.902;2023-04-02T13:46:19;102368.41;;;10.30;64.36
38466;BME280;24244;51.950;5.902;2023-04-02T13:48:47;102377.22;;;10.31;63.71
38466;BME280;24244;51.950;5.902;2023-04-02T13:51:16;102372.47;;;10.34;64.13